Time;durP1;ratioP1;P1;durP2;ratioP2;P2;SDS_P1;SDS_P2;PMS_P1;PMS_P2;Temp;Humidity;BMP_temperature;BMP_pressure;BME280_temperature;BME280_humidity;BME280_pressure;Samples;Min_cycle;Max_cycle;Signal;HPM_P1;HPM_P2
2022/03/07 00:02:19;;;;;;;31.97;18.87;;;;;;;-0.25;62.20;101540.50;8250507;34;20425;-72
2022/03/07 00:07:22;;;;;;;34.80;20.77;;;;;;;-0.24;62.33;101537.00;8225642;34;20432;-71
2022/03/07 00:12:25;;;;;;;29.07;19.90;;;;;;;-0.19;62.70;101537.78;8226051;34;20429;-74
2022/03/07 00:17:30;;;;;;;35.80;20.43;;;;;;;-0.13;62.58;101542.09;8250324;34;20199;-72
2022/03/07 00:22:33;;;;;;;35.27;19.47;;;;;;;-0.09;62.56;101535.81;8249867;34;20441;-74
2022/03/07 00:27:39;;;;;;;32.77;20.30;;;;;;;-0.05;62.51;101529.59;8227853;34;20523;-74
2022/03/07 00:32:44;;;;;;;33.00;20.20;;;;;;;-0.06;62.02;101526.06;8250523;34;20441;-72
2022/03/07 00:37:47;;;;;;;31.07;19.17;;;;;;;-0.02;61.34;101526.91;8226821;34;20149;-73
2022/03/07 00:42:50;;;;;;;31.53;19.43;;;;;;;-0.06;60.79;101525.19;8250455;34;20867;-73
2022/03/07 00:47:55;;;;;;;29.60;18.23;;;;;;;-0.00;60.83;101526.84;8253002;34;20474;-73
2022/03/07 00:52:58;;;;;;;29.73;18.30;;;;;;;0.06;60.44;101526.75;8247983;34;20144;-73
2022/03/07 00:58:01;;;;;;;26.17;18.07;;;;;;;0.05;60.37;101535.56;8226238;34;20666;-73
2022/03/07 01:03:08;;;;;;;31.60;18.07;;;;;;;0.10;60.87;101533.72;8255855;34;20144;-74
2022/03/07 01:08:11;;;;;;;29.30;17.47;;;;;;;0.18;59.95;101534.44;8241615;34;20183;-73
2022/03/07 01:13:15;;;;;;;26.40;17.30;;;;;;;0.13;59.98;101537.16;8253854;34;20343;-73
2022/03/07 01:18:19;;;;;;;28.47;17.57;;;;;;;0.07;59.91;101537.28;8248786;34;20141;-73
2022/03/07 01:23:23;;;;;;;27.43;17.07;;;;;;;0.08;60.15;101552.25;8222117;34;20137;-74
2022/03/07 01:28:26;;;;;;;25.30;16.33;;;;;;;0.02;59.80;101547.06;8243880;34;20145;-73
2022/03/07 01:33:32;;;;;;;25.03;15.87;;;;;;;0.04;60.52;101544.41;8246297;34;20156;-73
2022/03/07 01:38:35;;;;;;;26.80;17.57;;;;;;;0.05;60.36;101547.00;8247918;34;21032;-73
2022/03/07 01:43:38;;;;;;;24.23;15.87;;;;;;;0.13;60.11;101542.44;8246612;35;20627;-73
2022/03/07 01:48:43;;;;;;;24.47;16.23;;;;;;;0.14;60.06;101541.56;8247486;34;20466;-73
2022/03/07 01:53:47;;;;;;;26.10;15.90;;;;;;;-0.06;59.96;101533.13;8223207;35;20519;-72
2022/03/07 01:58:52;;;;;;;25.58;15.45;;;;;;;-0.33;62.99;101539.78;8233041;34;20609;-72
2022/03/07 02:03:56;;;;;;;26.60;17.10;;;;;;;-0.39;63.25;101529.31;8230254;34;20617;-72
2022/03/07 02:09:00;;;;;;;30.53;18.20;;;;;;;-0.28;63.52;101530.88;8232529;34;20882;-73
2022/03/07 02:14:12;;;;;;;26.90;16.67;;;;;;;-0.20;64.41;101520.16;8229908;34;20513;-74
2022/03/07 02:19:19;;;;;;;26.90;16.63;;;;;;;-0.13;64.41;101527.09;8230141;34;20149;-72
2022/03/07 02:24:24;;;;;;;25.57;16.90;;;;;;;-0.09;63.99;101520.84;8248393;34;20466;-73
2022/03/07 02:29:32;;;;;;;29.57;16.73;;;;;;;-0.03;63.52;101524.28;8225233;34;20488;-73
2022/03/07 02:34:39;;;;;;;28.93;17.27;;;;;;;-0.12;62.81;101523.53;8223530;34;20156;-73
2022/03/07 02:39:46;;;;;;;28.20;17.80;;;;;;;-0.22;62.01;101515.81;8225859;34;20137;-73
2022/03/07 02:45:10;;;;;;;31.20;18.20;;;;;;;-0.22;63.40;101518.47;8229240;34;20145;-73
2022/03/07 02:50:13;;;;;;;29.77;17.17;;;;;;;-0.16;64.05;101516.59;8228332;34;20441;-74
2022/03/07 02:55:18;;;;;;;28.13;17.77;;;;;;;-0.13;63.35;101526.22;8227745;34;20455;-74
2022/03/07 03:00:21;;;;;;;29.97;16.63;;;;;;;-0.16;63.12;101521.00;8247791;34;20979;-74
2022/03/07 03:05:25;;;;;;;28.27;17.97;;;;;;;-0.25;62.93;101522.03;8246682;34;20427;-74
2022/03/07 03:10:29;;;;;;;29.77;17.80;;;;;;;-0.34;63.43;101514.28;8245331;34;20251;-74
2022/03/07 03:15:32;;;;;;;32.80;20.03;;;;;;;-0.43;63.16;101510.03;8243081;34;20615;-74
2022/03/07 03:20:36;;;;;;;28.33;17.53;;;;;;;-0.48;64.08;101521.56;8244494;34;20540;-74
2022/03/07 03:25:41;;;;;;;30.00;19.00;;;;;;;-0.49;64.54;101512.78;8244415;34;20437;-73
2022/03/07 03:30:44;;;;;;;30.77;18.70;;;;;;;-0.56;63.98;101521.69;8265563;34;20200;-72
2022/03/07 03:35:47;;;;;;;34.23;18.90;;;;;;;-0.40;64.27;101524.94;8290872;34;20474;-73
2022/03/07 03:40:52;;;;;;;30.33;18.57;;;;;;;-0.34;64.81;101515.13;8281470;34;20972;-73
2022/03/07 03:45:55;;;;;;;31.53;18.70;;;;;;;-0.52;65.85;101518.97;8248742;34;20564;-73
2022/03/07 03:50:58;;;;;;;32.77;19.83;;;;;;;-0.43;66.64;101520.59;8244629;34;20153;-72
2022/03/07 03:56:02;;;;;;;29.87;18.80;;;;;;;-0.44;66.87;101521.47;8245411;34;20635;-73
2022/03/07 04:01:05;;;;;;;30.93;17.77;;;;;;;-0.60;67.05;101512.09;8228701;34;20448;-73
2022/03/07 04:06:09;;;;;;;29.83;18.37;;;;;;;-0.61;67.63;101516.47;8253327;34;20544;-73
2022/03/07 04:11:13;;;;;;;30.70;18.70;;;;;;;-0.57;67.42;101512.03;8250205;34;20160;-73
2022/03/07 04:16:16;;;;;;;30.63;20.43;;;;;;;-0.43;67.44;101519.72;8250245;34;21108;-73
2022/03/07 04:21:20;;;;;;;32.70;19.13;;;;;;;-0.40;66.74;101512.63;8250025;34;20587;-73
2022/03/07 04:26:25;;;;;;;33.50;17.83;;;;;;;-0.64;67.10;101515.66;8248429;34;20475;-73
2022/03/07 04:31:28;;;;;;;37.10;20.13;;;;;;;-0.56;67.53;101525.19;8245141;34;20147;-73
2022/03/07 04:36:32;;;;;;;29.23;18.70;;;;;;;-0.46;67.43;101525.94;8244584;34;20509;-74
2022/03/07 04:41:36;;;;;;;32.70;20.60;;;;;;;-0.61;66.19;101516.47;8246624;34;20200;-73
2022/03/07 04:46:40;;;;;;;33.50;20.07;;;;;;;-0.57;65.20;101515.56;8245862;34;20540;-73
2022/03/07 04:51:45;;;;;;;30.27;19.07;;;;;;;-0.59;65.08;101516.47;8245018;34;20141;-73
2022/03/07 04:56:51;;;;;;;29.80;18.47;;;;;;;-0.45;64.96;101522.38;8250080;34;20467;-73
2022/03/07 05:01:54;;;;;;;34.17;19.80;;;;;;;-0.48;65.77;101525.06;8250007;34;20428;-73
2022/03/07 05:06:58;;;;;;;34.47;20.33;;;;;;;-0.56;65.71;101514.63;8246892;34;20152;-72
2022/03/07 05:12:03;;;;;;;33.60;20.13;;;;;;;-0.59;66.05;101532.31;8241831;34;20444;-73
2022/03/07 05:17:06;;;;;;;38.87;22.53;;;;;;;-0.64;66.74;101536.78;8243268;34;20433;-73
2022/03/07 05:22:10;;;;;;;36.30;19.83;;;;;;;-0.66;66.45;101526.25;8236325;34;20532;-74
2022/03/07 05:27:14;;;;;;;35.50;20.57;;;;;;;-0.65;66.12;101537.69;8237049;34;20579;-73
2022/03/07 05:32:17;;;;;;;35.23;20.90;;;;;;;-0.78;66.19;101529.09;8236604;34;20913;-73
2022/03/07 05:37:20;;;;;;;36.97;21.13;;;;;;;-0.90;66.58;101530.16;8236357;34;20428;-74
2022/03/07 05:42:25;;;;;;;36.83;21.53;;;;;;;-1.03;66.99;101531.22;8213443;34;20476;-73
2022/03/07 05:47:28;;;;;;;35.90;20.30;;;;;;;-1.22;67.27;101538.53;8214399;35;20662;-73
2022/03/07 05:52:31;;;;;;;35.93;20.07;;;;;;;-1.33;67.84;101540.44;8236545;34;21034;-74
2022/03/07 05:57:36;;;;;;;35.73;21.53;;;;;;;-1.35;67.76;101551.00;8240124;34;20881;-73
2022/03/07 06:02:39;;;;;;;34.50;20.63;;;;;;;-1.40;67.96;101552.81;8295512;28;20561;-74
2022/03/07 06:07:43;;;;;;;34.67;21.23;;;;;;;-1.43;68.27;101560.75;8300065;34;20178;-74
2022/03/07 06:12:47;;;;;;;34.87;20.67;;;;;;;-1.43;68.07;101558.13;8304097;34;20509;-74
2022/03/07 06:17:58;;;;;;;35.23;20.93;;;;;;;-1.53;69.02;101559.16;8312543;34;20429;-74
2022/03/07 06:23:01;;;;;;;36.53;19.60;;;;;;;-1.49;69.12;101571.38;8312245;34;20637;-74
2022/03/07 06:28:06;;;;;;;36.27;21.13;;;;;;;-1.40;69.03;101577.44;8300033;34;20534;-74
2022/03/07 06:33:09;;;;;;;32.50;19.37;;;;;;;-1.24;68.94;101570.19;8301586;34;20192;-74
2022/03/07 06:38:12;;;;;;;33.13;19.97;;;;;;;-0.95;68.66;101569.78;8279344;34;20273;-74
2022/03/07 06:43:16;;;;;;;32.03;18.93;;;;;;;-0.66;67.22;101567.59;8297376;34;20128;-74
2022/03/07 06:48:19;;;;;;;35.50;19.97;;;;;;;-0.35;67.03;101568.88;8301680;34;20140;-74
2022/03/07 06:53:22;;;;;;;34.03;20.07;;;;;;;-0.37;65.36;101573.28;8300638;34;20576;-74
2022/03/07 06:58:26;;;;;;;32.90;20.13;;;;;;;-0.28;65.17;101565.19;8302324;34;20533;-74
2022/03/07 07:03:30;;;;;;;31.23;18.00;;;;;;;0.20;64.58;101576.72;8298502;34;20529;-74
2022/03/07 07:08:33;;;;;;;35.07;20.27;;;;;;;0.50;63.01;101572.59;8298165;34;20187;-74
2022/03/07 07:13:37;;;;;;;29.13;19.23;;;;;;;0.86;62.26;101578.88;8296718;34;20175;-74
2022/03/07 07:18:41;;;;;;;37.73;21.60;;;;;;;1.02;60.52;101571.47;8298440;34;20471;-74
2022/03/07 07:23:44;;;;;;;34.00;20.93;;;;;;;1.18;60.17;101585.22;8297951;34;20228;-74
2022/03/07 07:28:48;;;;;;;27.03;18.27;;;;;;;1.17;59.90;101596.72;8299644;34;20678;-74
2022/03/07 07:33:51;;;;;;;29.70;18.17;;;;;;;1.10;60.57;101598.66;8272222;34;20655;-73
2022/03/07 07:38:54;;;;;;;29.57;18.03;;;;;;;1.60;59.28;101598.38;8292235;34;20431;-74
2022/03/07 07:43:59;;;;;;;28.93;17.67;;;;;;;2.10;58.60;101596.22;8296729;34;20474;-73
2022/03/07 07:49:02;;;;;;;24.37;15.27;;;;;;;2.66;56.95;101601.78;8302506;34;20208;-74
2022/03/07 07:54:05;;;;;;;22.93;15.47;;;;;;;2.38;56.66;101591.03;8306212;34;20525;-74
2022/03/07 07:59:12;;;;;;;23.27;15.83;;;;;;;2.87;56.00;101596.75;8316044;34;20466;-74
2022/03/07 08:04:15;;;;;;;22.80;14.90;;;;;;;3.16;55.06;101606.50;8281186;34;20421;-74
2022/03/07 08:09:18;;;;;;;17.23;11.52;;;;;;;4.13;54.41;101599.75;8300999;34;20437;-74
2022/03/07 08:14:23;;;;;;;22.92;13.63;;;;;;;4.75;52.74;101605.53;8298551;34;21013;-74
2022/03/07 08:19:26;;;;;;;23.13;15.00;;;;;;;5.33;51.95;101605.97;8298956;34;20290;-74
2022/03/07 08:24:29;;;;;;;23.08;15.27;;;;;;;5.69;51.52;101605.41;8296068;34;20458;-74
2022/03/07 08:29:33;;;;;;;26.40;15.50;;;;;;;5.85;51.03;101606.53;8296355;34;20200;-74
2022/03/07 08:34:38;;;;;;;26.20;15.40;;;;;;;6.21;50.24;101599.69;8275030;34;20540;-74
2022/03/07 08:39:41;;;;;;;22.63;14.70;;;;;;;6.35;49.93;101600.81;8295820;34;20167;-74
2022/03/07 08:44:45;;;;;;;26.15;14.75;;;;;;;6.37;50.32;101598.94;8298340;34;20141;-74
2022/03/07 08:49:49;;;;;;;22.25;13.77;;;;;;;6.62;48.98;101603.19;8303390;34;20467;-74
2022/03/07 08:54:52;;;;;;;19.05;11.93;;;;;;;6.87;48.38;101600.28;8302381;34;20255;-74
2022/03/07 08:59:56;;;;;;;20.52;12.65;;;;;;;6.68;49.44;101602.03;8281189;34;20238;-74
2022/03/07 09:04:59;;;;;;;18.95;11.70;;;;;;;6.79;48.07;101594.41;8302212;34;21001;-74
2022/03/07 09:10:03;;;;;;;17.65;12.02;;;;;;;6.74;47.72;101591.94;8302477;34;20520;-74
2022/03/07 09:15:08;;;;;;;20.50;13.45;;;;;;;6.35;48.45;101586.59;8300933;34;20441;-74
2022/03/07 09:20:13;;;;;;;20.20;13.48;;;;;;;7.32;47.64;101583.00;8293551;34;20563;-74
2022/03/07 09:25:16;;;;;;;19.40;12.02;;;;;;;6.37;48.94;101590.94;8311222;34;20637;-74
2022/03/07 09:30:21;;;;;;;19.30;12.98;;;;;;;6.98;47.26;101587.28;8300887;34;20415;-74
2022/03/07 09:35:24;;;;;;;21.88;12.40;;;;;;;6.23;48.21;101587.16;8292416;34;20198;-74
2022/03/07 09:40:27;;;;;;;20.13;12.77;;;;;;;7.04;47.41;101584.31;8291652;34;20495;-74
2022/03/07 09:45:32;;;;;;;17.42;11.57;;;;;;;6.94;47.22;101592.84;8291220;34;20568;-74
2022/03/07 09:50:35;;;;;;;22.88;12.23;;;;;;;7.33;47.10;101595.44;8295226;34;20190;-74
2022/03/07 09:55:38;;;;;;;17.15;10.38;;;;;;;6.17;48.04;101585.59;8292911;34;20156;-74
2022/03/07 10:00:44;;;;;;;15.88;11.25;;;;;;;6.76;49.17;101591.88;8293863;34;20528;-74
2022/03/07 10:05:49;;;;;;;15.50;10.45;;;;;;;8.54;43.05;101580.44;8290569;34;20451;-74
2022/03/07 10:10:55;;;;;;;10.45;7.50;;;;;;;9.24;40.64;101583.72;8293056;34;20428;-74
2022/03/07 10:16:02;;;;;;;13.98;9.20;;;;;;;9.52;39.16;101580.34;8289698;34;20450;-74
2022/03/07 10:21:05;;;;;;;12.57;9.48;;;;;;;9.54;39.95;101577.56;8294076;34;20444;-74
2022/03/07 10:26:12;;;;;;;12.63;9.15;;;;;;;10.23;39.38;101571.69;8294554;34;20447;-74
2022/03/07 10:31:20;;;;;;;12.93;9.30;;;;;;;10.65;39.07;101563.75;8295987;34;20563;-74
2022/03/07 10:36:31;;;;;;;13.45;9.60;;;;;;;10.71;37.82;101564.22;8297638;34;20247;-74
2022/03/07 10:41:37;;;;;;;17.83;10.05;;;;;;;11.09;37.87;101543.94;8299006;34;20467;-74
2022/03/07 10:46:42;;;;;;;12.55;7.85;;;;;;;9.96;37.78;101538.47;8306275;34;20517;-74
2022/03/07 10:51:52;;;;;;;11.20;7.53;;;;;;;10.30;38.72;101534.56;8303123;34;20528;-74
2022/03/07 10:56:56;;;;;;;12.35;8.15;;;;;;;11.12;37.63;101533.84;8299216;34;20602;-74
2022/03/07 11:02:06;;;;;;;13.32;8.38;;;;;;;11.71;36.51;101530.84;8300609;34;20425;-74
2022/03/07 11:07:10;;;;;;;7.95;5.85;;;;;;;12.12;35.07;101521.75;8274172;34;20464;-74
2022/03/07 11:12:15;;;;;;;6.63;5.68;;;;;;;11.88;33.82;101525.19;8297748;34;20160;-74
2022/03/07 11:17:19;;;;;;;8.02;6.03;;;;;;;11.08;34.46;101542.19;8283849;34;20211;-75
2022/03/07 11:22:23;;;;;;;8.68;6.40;;;;;;;10.68;35.91;101528.63;8317579;34;20520;-74
2022/03/07 11:27:27;;;;;;;7.90;6.22;;;;;;;11.99;34.32;101524.44;8302501;34;20544;-74
2022/03/07 11:32:38;;;;;;;7.88;6.05;;;;;;;12.36;33.24;101530.84;8278037;34;20163;-74
2022/03/07 11:37:42;;;;;;;7.60;5.93;;;;;;;12.27;32.88;101519.81;8279097;34;20475;-74
2022/03/07 11:42:45;;;;;;;7.10;5.40;;;;;;;12.89;31.36;101521.69;8300165;34;20296;-74
2022/03/07 11:47:50;;;;;;;5.65;4.85;;;;;;;13.40;31.14;101508.06;8281461;34;20167;-73
2022/03/07 11:53:04;;;;;;;7.32;5.38;;;;;;;14.29;30.11;101491.25;8304783;34;20511;-74
2022/03/07 11:58:08;;;;;;;5.82;4.85;;;;;;;14.37;30.35;101472.59;8305121;34;20137;-74
2022/03/07 12:03:15;;;;;;;10.15;5.38;;;;;;;15.14;28.71;101466.34;8286276;28;20232;-74
2022/03/07 12:08:20;;;;;;;7.70;6.15;;;;;;;14.86;29.60;101475.03;8251329;34;20441;-73
2022/03/07 12:13:23;;;;;;;8.57;5.95;;;;;;;15.65;29.33;101471.06;8250630;34;20495;-73
2022/03/07 12:18:29;;;;;;;10.43;7.50;;;;;;;16.32;28.39;101460.81;8251844;34;20468;-74
2022/03/07 12:23:34;;;;;;;10.35;7.15;;;;;;;16.28;29.18;101452.09;8245792;34;20471;-75
2022/03/07 12:28:43;;;;;;;11.00;7.10;;;;;;;15.57;28.54;101451.06;8258277;34;20149;-76
2022/03/07 12:33:48;;;;;;;8.32;6.07;;;;;;;15.97;27.90;101445.78;8265794;34;20932;-73
2022/03/07 12:39:07;;;;;;;9.43;6.00;;;;;;;17.10;27.91;101434.75;8264742;34;20153;-73
2022/03/07 12:44:10;;;;;;;9.43;6.82;;;;;;;17.15;26.70;101437.06;8263573;34;20153;-72
2022/03/07 12:49:19;;;;;;;8.43;6.00;;;;;;;16.51;27.39;101444.63;8255328;34;20211;-75
2022/03/07 12:54:29;;;;;;;9.32;5.72;;;;;;;16.88;26.80;101425.00;8261505;34;20161;-73
2022/03/07 12:59:36;;;;;;;7.55;5.78;;;;;;;16.41;27.72;101408.47;8251149;34;20258;-73
2022/03/07 13:04:40;;;;;;;9.63;6.13;;;;;;;15.70;27.51;101413.81;8248880;34;20645;-72
2022/03/07 13:09:43;;;;;;;9.07;6.50;;;;;;;14.75;29.48;101421.81;8257779;34;20504;-74
2022/03/07 13:14:46;;;;;;;9.82;6.18;;;;;;;14.49;30.20;101422.09;8248117;34;20465;-73
2022/03/07 13:19:51;;;;;;;13.13;7.00;;;;;;;14.06;30.28;101409.31;8249447;34;21021;-73
2022/03/07 13:24:56;;;;;;;8.73;6.35;;;;;;;13.13;31.23;101416.53;8246715;34;20641;-74
2022/03/07 13:30:07;;;;;;;8.65;5.72;;;;;;;12.78;32.69;101403.84;8245478;34;20419;-73
2022/03/07 13:35:23;;;;;;;8.73;6.43;;;;;;;14.71;29.65;101401.41;8243541;34;20444;-73
2022/03/07 13:40:32;;;;;;;11.00;7.45;;;;;;;17.25;28.05;101380.88;8269046;34;20585;-74
2022/03/07 13:45:37;;;;;;;9.75;7.03;;;;;;;18.65;26.35;101389.16;8275043;34;20461;-73
2022/03/07 13:50:49;;;;;;;11.27;7.60;;;;;;;18.93;25.95;101390.03;8259377;34;20444;-73
2022/03/07 13:55:57;;;;;;;10.02;7.15;;;;;;;18.64;25.27;101384.75;8260213;34;20545;-73
2022/03/07 14:01:07;;;;;;;10.32;7.38;;;;;;;13.47;30.96;101387.88;8250557;34;20145;-73
2022/03/07 14:06:31;;;;;;;9.50;7.30;;;;;;;16.29;28.78;101383.31;8260838;34;20580;-73
2022/03/07 14:11:35;;;;;;;11.77;8.18;;;;;;;18.26;26.98;101379.34;8247114;34;20448;-73
2022/03/07 14:16:38;;;;;;;10.73;8.07;;;;;;;19.22;25.64;101367.97;8247444;34;20469;-73
2022/03/07 14:21:42;;;;;;;12.20;8.77;;;;;;;18.58;25.95;101364.44;8246132;34;20554;-73
2022/03/07 14:32:40;;;;;;;11.40;7.45;;;;;;;17.89;26.92;101349.47;8017494;35;20161;-75
2022/03/07 14:37:44;;;;;;;9.07;8.07;;;;;;;17.35;26.38;101360.03;7979316;36;20148;-74
2022/03/07 14:42:49;;;;;;;11.90;7.75;;;;;;;17.46;27.28;101350.84;8036005;29;20917;-74
2022/03/07 14:47:52;;;;;;;10.82;8.48;;;;;;;17.67;27.14;101340.66;8291267;34;20620;-73
2022/03/07 14:52:56;;;;;;;14.00;8.88;;;;;;;17.47;28.28;101344.44;8296164;34;20553;-73
2022/03/07 14:57:59;;;;;;;13.45;8.85;;;;;;;17.50;28.07;101346.88;8274374;34;21071;-73
2022/03/07 15:03:04;;;;;;;13.13;8.60;;;;;;;16.87;28.82;101341.88;8300910;34;20416;-73
2022/03/07 15:08:08;;;;;;;11.32;8.23;;;;;;;17.48;27.96;101333.41;8303662;34;20455;-74
2022/03/07 15:13:11;;;;;;;36.45;22.58;;;;;;;17.41;27.86;101334.13;8304128;34;20559;-73
2022/03/07 15:18:14;;;;;;;16.58;11.80;;;;;;;16.52;28.78;101329.72;8303087;34;20434;-73
2022/03/07 15:23:19;;;;;;;12.25;8.95;;;;;;;14.94;30.37;101342.69;8303519;34;20421;-73
2022/03/07 15:28:22;;;;;;;12.70;9.02;;;;;;;13.53;32.77;101338.81;8302468;34;20152;-73
2022/03/07 15:33:25;;;;;;;12.85;8.98;;;;;;;12.58;34.55;101333.41;8308565;34;20436;-73
2022/03/07 15:38:30;;;;;;;13.50;9.30;;;;;;;12.08;35.73;101331.72;8304318;34;21156;-75
2022/03/07 15:43:33;;;;;;;13.07;8.98;;;;;;;11.50;36.64;101334.03;8302436;34;20552;-75
2022/03/07 15:48:36;;;;;;;13.57;9.10;;;;;;;11.42;36.01;101331.03;8301687;34;20522;-75
2022/03/07 15:53:41;;;;;;;13.45;9.00;;;;;;;10.97;36.09;101327.78;8301965;34;21159;-75
2022/03/07 15:58:46;;;;;;;13.95;8.30;;;;;;;10.63;36.95;101327.38;8302581;34;20584;-75
2022/03/07 16:03:49;;;;;;;11.30;7.75;;;;;;;10.14;37.64;101331.44;8302025;34;20872;-74
2022/03/07 16:08:54;;;;;;;12.38;8.27;;;;;;;10.18;38.15;101324.06;8310024;34;20350;-74
2022/03/07 16:14:00;;;;;;;12.20;8.48;;;;;;;9.86;39.65;101326.13;8315392;34;20433;-75
2022/03/07 16:19:03;;;;;;;19.00;10.98;;;;;;;9.81;40.00;101337.09;8312348;34;20223;-74
2022/03/07 16:24:09;;;;;;;18.00;10.52;;;;;;;9.51;40.99;101326.44;8316515;34;20527;-74
2022/03/07 16:29:12;;;;;;;13.80;9.63;;;;;;;9.03;41.43;101326.66;8318818;34;21035;-74
2022/03/07 16:34:15;;;;;;;15.48;9.65;;;;;;;8.77;41.85;101328.19;8322872;34;20164;-75
2022/03/07 16:39:20;;;;;;;16.35;9.20;;;;;;;8.53;42.40;101332.28;8324172;34;21046;-75
2022/03/07 16:44:23;;;;;;;15.73;9.82;;;;;;;8.21;43.67;101334.97;8319814;34;20378;-75
2022/03/07 16:49:26;;;;;;;21.63;11.13;;;;;;;8.00;44.41;101342.38;8315821;34;20425;-75
2022/03/07 16:54:30;;;;;;;17.80;10.48;;;;;;;7.49;45.60;101347.78;8316470;34;21115;-75
2022/03/07 16:59:35;;;;;;;17.73;9.65;;;;;;;7.18;46.14;101343.16;8312984;34;20939;-74
2022/03/07 17:04:38;;;;;;;16.70;8.75;;;;;;;6.79;47.20;101349.56;8303772;34;20206;-75
2022/03/07 17:09:43;;;;;;;16.73;8.90;;;;;;;6.34;48.10;101352.69;8283807;34;20225;-75
2022/03/07 17:14:51;;;;;;;16.63;8.77;;;;;;;6.13;48.10;101352.75;8162141;34;20440;-74
2022/03/07 17:19:57;;;;;;;13.00;7.05;;;;;;;5.87;48.16;101361.09;8157243;34;20177;-73
2022/03/07 17:25:02;;;;;;;12.80;6.70;;;;;;;5.61;47.87;101360.47;8157367;34;20453;-73
2022/03/07 17:30:08;;;;;;;10.63;6.07;;;;;;;5.32;47.84;101361.78;8155081;35;20771;-75
2022/03/07 17:35:12;;;;;;;10.77;6.43;;;;;;;5.26;47.80;101370.03;8156197;34;20546;-75
2022/03/07 17:40:18;;;;;;;11.90;5.93;;;;;;;5.14;47.94;101373.22;8158008;35;20133;-73
2022/03/07 17:45:21;;;;;;;12.75;6.70;;;;;;;4.97;48.37;101369.44;8157524;34;20189;-73
2022/03/07 17:50:24;;;;;;;10.35;6.03;;;;;;;4.86;48.56;101369.03;8157844;35;20254;-73
2022/03/07 17:55:28;;;;;;;11.00;6.45;;;;;;;4.81;48.74;101377.19;8156970;35;20499;-76
2022/03/07 18:00:32;;;;;;;12.52;6.88;;;;;;;4.70;49.09;101390.06;8159736;35;20475;-77
2022/03/07 18:05:35;;;;;;;12.90;8.38;;;;;;;4.61;49.36;101393.97;8157983;35;20977;-75
2022/03/07 18:10:41;;;;;;;14.35;9.05;;;;;;;4.49;49.61;101390.94;8157507;35;20496;-75
2022/03/07 18:15:44;;;;;;;14.25;8.15;;;;;;;4.39;49.97;101385.13;8158522;35;20208;-75
2022/03/07 18:20:47;;;;;;;16.50;9.52;;;;;;;4.33;50.24;101393.31;8157622;35;20967;-74
2022/03/07 18:25:51;;;;;;;10.85;7.38;;;;;;;4.23;50.85;101391.97;8157795;35;20434;-73
2022/03/07 18:30:55;;;;;;;14.43;7.45;;;;;;;4.08;51.18;101402.25;8155825;35;20134;-74
2022/03/07 18:35:58;;;;;;;12.18;6.95;;;;;;;4.06;51.77;101401.44;8156631;35;20445;-74
2022/03/07 18:41:04;;;;;;;13.63;7.70;;;;;;;4.07;51.45;101407.63;8180200;34;20511;-74
2022/03/07 18:46:07;;;;;;;16.70;9.43;;;;;;;4.02;51.57;101398.97;8160501;34;20677;-75
2022/03/07 18:51:10;;;;;;;20.45;11.25;;;;;;;3.94;51.84;101400.09;8156958;34;21015;-75
2022/03/07 18:56:15;;;;;;;22.80;12.40;;;;;;;3.88;52.06;101392.34;8155337;34;20458;-76
2022/03/07 19:01:18;;;;;;;17.90;11.18;;;;;;;3.83;51.98;101389.00;8162444;34;20260;-75
2022/03/07 19:06:22;;;;;;;19.08;10.40;;;;;;;3.74;52.06;101386.69;8152849;34;20427;-75
2022/03/07 19:11:26;;;;;;;18.00;8.77;;;;;;;3.62;52.65;101385.34;8152900;34;20130;-74
2022/03/07 19:16:29;;;;;;;13.63;8.23;;;;;;;3.69;52.79;101394.81;8154571;34;20154;-76
2022/03/07 19:21:33;;;;;;;13.07;7.82;;;;;;;3.70;52.51;101398.34;8158337;34;20569;-76
2022/03/07 19:26:38;;;;;;;13.65;8.13;;;;;;;3.71;52.54;101405.41;8158924;34;20331;-76
2022/03/07 19:31:42;;;;;;;14.07;8.85;;;;;;;3.69;52.33;101401.94;8157810;34;20138;-77
2022/03/07 19:36:46;;;;;;;15.40;9.10;;;;;;;3.58;53.03;101406.78;8210035;34;20167;-77
2022/03/07 19:41:51;;;;;;;17.25;9.63;;;;;;;3.36;53.51;101411.97;8224500;34;21169;-76
2022/03/07 19:46:55;;;;;;;22.80;13.55;;;;;;;3.24;53.98;101410.59;8230390;34;20444;-76
2022/03/07 19:51:58;;;;;;;15.80;10.68;;;;;;;3.16;54.23;101413.53;8218985;34;20149;-74
2022/03/07 19:57:03;;;;;;;19.45;12.90;;;;;;;3.04;54.45;101409.50;8226794;34;20451;-75
2022/03/07 20:02:07;;;;;;;20.88;11.77;;;;;;;2.98;54.75;101408.81;8223471;34;20486;-76
2022/03/07 20:07:10;;;;;;;20.08;12.02;;;;;;;2.92;55.00;101417.00;8230411;34;20681;-75
2022/03/07 20:12:14;;;;;;;20.55;12.55;;;;;;;2.92;55.25;101428.47;8229213;34;20701;-76
2022/03/07 20:17:18;;;;;;;23.17;12.93;;;;;;;2.91;55.30;101428.50;8230418;34;20731;-76
2022/03/07 20:22:21;;;;;;;17.67;10.15;;;;;;;2.90;55.40;101427.63;8231332;34;21886;-76
2022/03/07 20:27:26;;;;;;;22.40;13.10;;;;;;;2.94;55.42;101426.63;8229488;34;20470;-75
2022/03/07 20:32:29;;;;;;;18.60;11.77;;;;;;;2.86;55.71;101417.19;8225296;34;22520;-76
2022/03/07 20:37:32;;;;;;;20.15;11.77;;;;;;;2.80;56.01;101412.97;8224338;34;20435;-76
2022/03/07 20:42:37;;;;;;;26.27;14.98;;;;;;;2.78;56.03;101409.47;8223174;34;20495;-75
2022/03/07 20:47:40;;;;;;;23.85;14.45;;;;;;;2.70;56.11;101414.16;8188031;34;20431;-76
2022/03/07 20:52:44;;;;;;;18.90;10.45;;;;;;;2.59;55.89;101418.00;8214253;34;21019;-76
2022/03/07 20:57:48;;;;;;;15.85;9.73;;;;;;;2.48;56.57;101416.59;8214627;34;20151;-76
2022/03/07 21:02:51;;;;;;;25.58;14.85;;;;;;;2.24;57.16;101413.75;8190493;34;20181;-75
2022/03/07 21:07:54;;;;;;;24.05;14.05;;;;;;;2.29;57.62;101408.31;8212952;34;20448;-76
2022/03/07 21:12:59;;;;;;;28.90;17.90;;;;;;;2.39;57.76;101421.25;8212262;34;20461;-75
2022/03/07 21:18:02;;;;;;;33.25;16.98;;;;;;;2.27;57.47;101411.00;8209694;34;20161;-77
2022/03/07 21:23:06;;;;;;;17.55;9.70;;;;;;;1.66;58.87;101426.03;8211318;34;20465;-76
2022/03/07 21:28:10;;;;;;;19.75;11.10;;;;;;;1.30;59.96;101426.09;8209566;34;20148;-76
2022/03/07 21:33:13;;;;;;;20.45;10.50;;;;;;;1.23;60.44;101430.66;8210706;34;20541;-76
2022/03/07 21:38:16;;;;;;;21.73;11.57;;;;;;;1.15;60.75;101443.25;8210479;34;21254;-78
2022/03/07 21:43:21;;;;;;;19.07;11.03;;;;;;;1.26;60.90;101454.44;8211503;34;21132;-77
2022/03/07 21:48:25;;;;;;;28.17;12.23;;;;;;;1.29;60.93;101453.50;8210358;34;20437;-76
2022/03/07 21:53:28;;;;;;;20.48;12.07;;;;;;;1.37;60.68;101445.31;8209862;34;20478;-75
2022/03/07 21:58:34;;;;;;;21.85;12.27;;;;;;;1.44;60.43;101450.44;8205619;35;20148;-76
2022/03/07 22:03:37;;;;;;;20.20;11.40;;;;;;;1.51;60.16;101448.50;8206884;34;20152;-76
2022/03/07 22:08:41;;;;;;;17.45;11.05;;;;;;;1.57;59.96;101440.41;8186977;35;20620;-76
2022/03/07 22:13:45;;;;;;;26.20;14.18;;;;;;;1.65;59.90;101434.91;8207248;34;20182;-76
2022/03/07 22:18:53;;;;;;;24.02;12.82;;;;;;;1.75;60.09;101433.72;8212612;34;20406;-76
2022/03/07 22:30:21;;;;;;;25.33;12.73;;;;;;;1.52;59.95;101446.72;8186973;35;20905;-75
2022/03/07 22:35:26;;;;;;;23.90;13.48;;;;;;;1.42;60.08;101439.00;8195254;35;20137;-76
2022/03/07 22:40:29;;;;;;;25.02;14.02;;;;;;;1.37;59.92;101440.94;8196088;35;20767;-76
2022/03/07 22:45:34;;;;;;;29.40;14.98;;;;;;;1.33;60.63;101441.03;8205299;35;20197;-76
2022/03/07 22:50:37;;;;;;;24.45;13.68;;;;;;;1.44;60.48;101436.31;8207708;35;20595;-76
2022/03/07 22:55:40;;;;;;;26.60;13.35;;;;;;;1.29;60.56;101448.19;8195324;35;21032;-75
2022/03/07 23:00:45;;;;;;;26.60;14.05;;;;;;;1.22;61.31;101443.94;8195164;35;20434;-75
2022/03/07 23:11:09;;;;;;;27.23;15.02;;;;;;;1.31;61.44;101430.47;8190994;35;20494;-75
2022/03/07 23:16:14;;;;;;;26.67;14.23;;;;;;;1.25;61.16;101428.00;8190960;35;21071;-75
2022/03/07 23:21:19;;;;;;;25.48;14.73;;;;;;;1.24;61.71;101424.47;8193573;35;20244;-74
2022/03/07 23:26:23;;;;;;;24.10;14.23;;;;;;;1.15;61.56;101429.13;8190558;35;20462;-74
2022/03/07 23:31:29;;;;;;;26.02;14.55;;;;;;;1.04;62.43;101432.94;8190503;35;20916;-75
2022/03/07 23:36:34;;;;;;;23.20;14.43;;;;;;;1.02;62.16;101426.81;8189399;35;20700;-75